sensor_id;sensor_type;location;lat;lon;timestamp;pressure;altitude;pressure_sealevel;temperature;humidity
47753;BME280;2038;51.728;6.674;2023-03-15T00:01:25;100437.41;;;4.12;100.00
47753;BME280;2038;51.728;6.674;2023-03-15T00:03:52;100433.72;;;4.09;100.00
47753;BME280;2038;51.728;6.674;2023-03-15T00:06:20;100434.00;;;4.12;100.00
47753;BME280;2038;51.728;6.674;2023-03-15T00:08:46;100441.56;;;4.22;100.00
47753;BME280;2038;51.728;6.674;2023-03-15T00:11:13;100447.25;;;4.19;100.00
47753;BME280;2038;51.728;6.674;2023-03-15T00:13:41;100445.34;;;4.17;100.00
47753;BME280;2038;51.728;6.674;2023-03-15T00:16:07;100447.09;;;4.18;100.00
47753;BME280;2038;51.728;6.674;2023-03-15T00:18:34;100449.22;;;4.13;100.00
47753;BME280;2038;51.728;6.674;2023-03-15T00:21:00;100450.66;;;4.20;100.00
47753;BME280;2038;51.728;6.674;2023-03-15T00:23:27;100448.63;;;4.16;100.00
47753;BME280;2038;51.728;6.674;2023-03-15T00:25:53;100448.22;;;4.11;100.00
47753;BME280;2038;51.728;6.674;2023-03-15T00:28:19;100455.16;;;4.14;100.00
47753;BME280;2038;51.728;6.674;2023-03-15T00:30:46;100458.06;;;4.18;100.00
47753;BME280;2038;51.728;6.674;2023-03-15T00:33:14;100454.41;;;4.15;100.00
47753;BME280;2038;51.728;6.674;2023-03-15T00:35:43;100449.50;;;4.16;100.00
47753;BME280;2038;51.728;6.674;2023-03-15T00:38:10;100444.22;;;4.23;100.00
47753;BME280;2038;51.728;6.674;2023-03-15T00:40:38;100458.72;;;4.26;100.00
47753;BME280;2038;51.728;6.674;2023-03-15T00:43:05;100459.00;;;4.29;100.00
47753;BME280;2038;51.728;6.674;2023-03-15T00:45:32;100455.44;;;4.27;100.00
47753;BME280;2038;51.728;6.674;2023-03-15T00:47:58;100453.56;;;4.24;100.00
47753;BME280;2038;51.728;6.674;2023-03-15T00:50:24;100478.41;;;4.20;100.00
47753;BME280;2038;51.728;6.674;2023-03-15T00:52:51;100482.19;;;4.25;100.00
47753;BME280;2038;51.728;6.674;2023-03-15T00:55:18;100473.75;;;4.24;100.00
47753;BME280;2038;51.728;6.674;2023-03-15T00:57:47;100473.94;;;4.17;100.00
47753;BME280;2038;51.728;6.674;2023-03-15T01:00:17;100473.69;;;4.14;100.00
47753;BME280;2038;51.728;6.674;2023-03-15T01:02:46;100471.31;;;4.16;100.00
47753;BME280;2038;51.728;6.674;2023-03-15T01:05:13;100480.66;;;4.17;100.00
47753;BME280;2038;51.728;6.674;2023-03-15T01:07:40;100465.25;;;4.14;100.00
47753;BME280;2038;51.728;6.674;2023-03-15T01:10:07;100476.84;;;4.12;100.00
47753;BME280;2038;51.728;6.674;2023-03-15T01:12:34;100474.59;;;4.15;100.00
47753;BME280;2038;51.728;6.674;2023-03-15T01:15:03;100467.91;;;4.25;100.00
47753;BME280;2038;51.728;6.674;2023-03-15T01:17:31;100469.59;;;4.25;100.00
47753;BME280;2038;51.728;6.674;2023-03-15T01:19:58;100468.06;;;4.27;100.00
47753;BME280;2038;51.728;6.674;2023-03-15T01:22:25;100482.47;;;4.28;100.00
47753;BME280;2038;51.728;6.674;2023-03-15T01:24:52;100490.13;;;4.19;100.00
47753;BME280;2038;51.728;6.674;2023-03-15T01:27:18;100493.38;;;4.18;100.00
47753;BME280;2038;51.728;6.674;2023-03-15T01:29:44;100502.97;;;4.22;100.00
47753;BME280;2038;51.728;6.674;2023-03-15T01:32:11;100505.00;;;4.27;100.00
47753;BME280;2038;51.728;6.674;2023-03-15T01:34:37;100507.69;;;4.28;100.00
47753;BME280;2038;51.728;6.674;2023-03-15T01:37:03;100503.63;;;4.30;100.00
47753;BME280;2038;51.728;6.674;2023-03-15T01:39:30;100494.69;;;4.34;100.00
47753;BME280;2038;51.728;6.674;2023-03-15T01:41:56;100504.56;;;4.41;100.00
47753;BME280;2038;51.728;6.674;2023-03-15T01:44:23;100506.31;;;4.42;100.00
47753;BME280;2038;51.728;6.674;2023-03-15T01:46:50;100509.81;;;4.34;100.00
47753;BME280;2038;51.728;6.674;2023-03-15T01:49:26;100509.13;;;4.45;100.00
47753;BME280;2038;51.728;6.674;2023-03-15T01:52:01;100508.84;;;4.42;100.00
47753;BME280;2038;51.728;6.674;2023-03-15T01:54:49;100520.59;;;4.51;100.00
47753;BME280;2038;51.728;6.674;2023-03-15T01:57:55;100516.69;;;4.45;100.00
47753;BME280;2038;51.728;6.674;2023-03-15T02:00:23;100514.38;;;4.38;100.00
47753;BME280;2038;51.728;6.674;2023-03-15T02:02:54;100513.63;;;4.29;100.00
47753;BME280;2038;51.728;6.674;2023-03-15T02:05:30;100510.63;;;4.14;100.00
47753;BME280;2038;51.728;6.674;2023-03-15T02:08:01;100515.59;;;4.22;100.00
47753;BME280;2038;51.728;6.674;2023-03-15T02:10:32;100519.41;;;4.28;100.00
47753;BME280;2038;51.728;6.674;2023-03-15T02:13:02;100516.78;;;4.36;100.00
47753;BME280;2038;51.728;6.674;2023-03-15T02:15:29;100529.75;;;4.31;100.00
47753;BME280;2038;51.728;6.674;2023-03-15T02:17:56;100532.31;;;4.41;100.00
47753;BME280;2038;51.728;6.674;2023-03-15T02:23:25;100542.91;;;4.37;100.00
47753;BME280;2038;51.728;6.674;2023-03-15T02:26:09;100538.09;;;4.40;100.00
47753;BME280;2038;51.728;6.674;2023-03-15T02:28:46;100532.81;;;4.37;100.00
47753;BME280;2038;51.728;6.674;2023-03-15T02:31:14;100534.06;;;4.42;100.00
47753;BME280;2038;51.728;6.674;2023-03-15T02:33:51;100531.53;;;4.32;100.00
47753;BME280;2038;51.728;6.674;2023-03-15T02:38:50;100543.00;;;4.28;100.00
47753;BME280;2038;51.728;6.674;2023-03-15T02:41:33;100541.44;;;4.20;100.00
47753;BME280;2038;51.728;6.674;2023-03-15T02:44:26;100550.78;;;4.21;100.00
47753;BME280;2038;51.728;6.674;2023-03-15T02:47:15;100551.31;;;4.27;100.00
47753;BME280;2038;51.728;6.674;2023-03-15T02:49:51;100555.06;;;4.22;100.00
47753;BME280;2038;51.728;6.674;2023-03-15T02:52:19;100553.31;;;4.21;100.00
47753;BME280;2038;51.728;6.674;2023-03-15T02:54:46;100554.78;;;4.19;100.00
47753;BME280;2038;51.728;6.674;2023-03-15T02:57:14;100566.28;;;4.25;100.00
47753;BME280;2038;51.728;6.674;2023-03-15T02:59:42;100562.84;;;4.15;100.00
47753;BME280;2038;51.728;6.674;2023-03-15T03:02:10;100569.13;;;4.10;100.00
47753;BME280;2038;51.728;6.674;2023-03-15T03:04:37;100577.00;;;4.23;100.00
47753;BME280;2038;51.728;6.674;2023-03-15T03:07:04;100577.00;;;4.23;100.00
47753;BME280;2038;51.728;6.674;2023-03-15T03:09:30;100578.22;;;4.18;100.00
47753;BME280;2038;51.728;6.674;2023-03-15T03:11:57;100586.28;;;4.14;100.00
47753;BME280;2038;51.728;6.674;2023-03-15T03:14:23;100597.66;;;4.19;100.00
47753;BME280;2038;51.728;6.674;2023-03-15T03:16:50;100600.34;;;4.20;100.00
47753;BME280;2038;51.728;6.674;2023-03-15T03:19:17;100608.31;;;4.25;100.00
47753;BME280;2038;51.728;6.674;2023-03-15T03:21:43;100615.41;;;4.29;100.00
47753;BME280;2038;51.728;6.674;2023-03-15T03:24:10;100615.50;;;4.31;100.00
47753;BME280;2038;51.728;6.674;2023-03-15T03:26:40;100621.94;;;4.27;100.00
47753;BME280;2038;51.728;6.674;2023-03-15T03:29:07;100629.81;;;4.40;100.00
47753;BME280;2038;51.728;6.674;2023-03-15T03:31:33;100630.41;;;4.38;100.00
47753;BME280;2038;51.728;6.674;2023-03-15T03:33:59;100627.84;;;4.28;100.00
47753;BME280;2038;51.728;6.674;2023-03-15T03:36:26;100630.31;;;4.36;100.00
47753;BME280;2038;51.728;6.674;2023-03-15T03:38:53;100640.81;;;4.41;100.00
47753;BME280;2038;51.728;6.674;2023-03-15T03:41:19;100645.06;;;4.42;100.00
47753;BME280;2038;51.728;6.674;2023-03-15T03:43:46;100652.38;;;4.39;100.00
47753;BME280;2038;51.728;6.674;2023-03-15T03:46:12;100654.31;;;4.41;100.00
47753;BME280;2038;51.728;6.674;2023-03-15T03:48:39;100659.06;;;4.38;100.00
47753;BME280;2038;51.728;6.674;2023-03-15T03:51:05;100660.03;;;4.30;100.00
47753;BME280;2038;51.728;6.674;2023-03-15T03:53:31;100660.16;;;4.32;100.00
47753;BME280;2038;51.728;6.674;2023-03-15T03:55:58;100665.13;;;4.40;100.00
47753;BME280;2038;51.728;6.674;2023-03-15T03:58:24;100658.88;;;4.27;100.00
47753;BME280;2038;51.728;6.674;2023-03-15T04:00:51;100670.06;;;4.20;100.00
47753;BME280;2038;51.728;6.674;2023-03-15T04:03:20;100673.13;;;4.26;100.00
47753;BME280;2038;51.728;6.674;2023-03-15T04:05:52;100678.44;;;4.10;100.00
47753;BME280;2038;51.728;6.674;2023-03-15T04:08:19;100678.66;;;4.03;100.00
47753;BME280;2038;51.728;6.674;2023-03-15T04:10:52;100682.13;;;3.95;100.00
47753;BME280;2038;51.728;6.674;2023-03-15T04:13:21;100689.47;;;4.02;100.00
47753;BME280;2038;51.728;6.674;2023-03-15T04:15:49;100692.47;;;3.98;100.00
47753;BME280;2038;51.728;6.674;2023-03-15T04:18:16;100683.75;;;3.95;100.00
47753;BME280;2038;51.728;6.674;2023-03-15T04:20:43;100696.56;;;3.88;100.00
47753;BME280;2038;51.728;6.674;2023-03-15T04:23:15;100707.56;;;3.80;100.00
47753;BME280;2038;51.728;6.674;2023-03-15T04:25:48;100699.88;;;3.78;100.00
47753;BME280;2038;51.728;6.674;2023-03-15T04:28:15;100712.19;;;3.75;100.00
47753;BME280;2038;51.728;6.674;2023-03-15T04:30:43;100711.94;;;3.72;100.00
47753;BME280;2038;51.728;6.674;2023-03-15T04:33:10;100711.66;;;3.69;100.00
47753;BME280;2038;51.728;6.674;2023-03-15T04:35:37;100713.75;;;3.64;100.00
47753;BME280;2038;51.728;6.674;2023-03-15T04:38:04;100708.09;;;3.67;100.00
47753;BME280;2038;51.728;6.674;2023-03-15T04:40:32;100716.69;;;3.69;100.00
47753;BME280;2038;51.728;6.674;2023-03-15T04:43:02;100720.06;;;3.69;100.00
47753;BME280;2038;51.728;6.674;2023-03-15T04:45:30;100721.59;;;3.67;100.00
47753;BME280;2038;51.728;6.674;2023-03-15T04:47:57;100728.09;;;3.65;100.00
47753;BME280;2038;51.728;6.674;2023-03-15T04:50:24;100736.28;;;3.63;100.00
47753;BME280;2038;51.728;6.674;2023-03-15T04:52:50;100736.91;;;3.60;100.00
47753;BME280;2038;51.728;6.674;2023-03-15T04:55:17;100734.66;;;3.63;100.00
47753;BME280;2038;51.728;6.674;2023-03-15T04:57:43;100733.13;;;3.65;100.00
47753;BME280;2038;51.728;6.674;2023-03-15T05:00:10;100738.59;;;3.70;100.00
47753;BME280;2038;51.728;6.674;2023-03-15T05:02:38;100738.78;;;3.63;100.00
47753;BME280;2038;51.728;6.674;2023-03-15T05:05:10;100738.94;;;3.64;100.00
47753;BME280;2038;51.728;6.674;2023-03-15T05:07:37;100736.91;;;3.60;100.00
47753;BME280;2038;51.728;6.674;2023-03-15T05:10:05;100744.72;;;3.63;100.00
47753;BME280;2038;51.728;6.674;2023-03-15T05:12:32;100745.19;;;3.59;100.00
47753;BME280;2038;51.728;6.674;2023-03-15T05:14:58;100752.31;;;3.55;100.00
47753;BME280;2038;51.728;6.674;2023-03-15T05:17:25;100749.94;;;3.56;100.00
47753;BME280;2038;51.728;6.674;2023-03-15T05:19:51;100761.03;;;3.58;100.00
47753;BME280;2038;51.728;6.674;2023-03-15T05:22:18;100757.31;;;3.63;100.00
47753;BME280;2038;51.728;6.674;2023-03-15T05:24:44;100763.09;;;3.62;100.00
47753;BME280;2038;51.728;6.674;2023-03-15T05:27:10;100761.94;;;3.59;100.00
47753;BME280;2038;51.728;6.674;2023-03-15T05:29:38;100776.34;;;3.51;100.00
47753;BME280;2038;51.728;6.674;2023-03-15T05:32:04;100786.13;;;3.57;100.00
47753;BME280;2038;51.728;6.674;2023-03-15T05:34:31;100789.22;;;3.54;100.00
47753;BME280;2038;51.728;6.674;2023-03-15T05:36:57;100800.03;;;3.53;100.00
47753;BME280;2038;51.728;6.674;2023-03-15T05:39:24;100792.81;;;3.48;100.00
47753;BME280;2038;51.728;6.674;2023-03-15T05:41:50;100800.94;;;3.54;100.00
47753;BME280;2038;51.728;6.674;2023-03-15T05:44:16;100803.31;;;3.52;100.00
47753;BME280;2038;51.728;6.674;2023-03-15T05:46:43;100813.84;;;3.48;100.00
47753;BME280;2038;51.728;6.674;2023-03-15T05:49:09;100816.50;;;3.50;100.00
47753;BME280;2038;51.728;6.674;2023-03-15T05:51:35;100822.44;;;3.50;100.00
47753;BME280;2038;51.728;6.674;2023-03-15T05:54:01;100822.31;;;3.49;100.00
47753;BME280;2038;51.728;6.674;2023-03-15T05:56:28;100821.88;;;3.44;100.00
47753;BME280;2038;51.728;6.674;2023-03-15T05:58:55;100829.44;;;3.44;100.00
47753;BME280;2038;51.728;6.674;2023-03-15T06:01:23;100829.28;;;3.43;100.00
47753;BME280;2038;51.728;6.674;2023-03-15T06:03:51;100829.13;;;3.41;100.00
47753;BME280;2038;51.728;6.674;2023-03-15T06:06:18;100836.25;;;3.37;100.00
47753;BME280;2038;51.728;6.674;2023-03-15T06:08:45;100838.34;;;3.32;100.00
47753;BME280;2038;51.728;6.674;2023-03-15T06:11:11;100840.44;;;3.27;100.00
47753;BME280;2038;51.728;6.674;2023-03-15T06:13:37;100845.47;;;3.27;100.00
47753;BME280;2038;51.728;6.674;2023-03-15T06:16:03;100847.81;;;3.26;100.00
47753;BME280;2038;51.728;6.674;2023-03-15T06:18:31;100846.19;;;3.26;100.00
47753;BME280;2038;51.728;6.674;2023-03-15T06:20:56;100855.25;;;3.24;100.00
47753;BME280;2038;51.728;6.674;2023-03-15T06:23:22;100856.44;;;3.28;100.00
47753;BME280;2038;51.728;6.674;2023-03-15T06:25:48;100857.00;;;3.34;100.00
47753;BME280;2038;51.728;6.674;2023-03-15T06:28:14;100859.22;;;3.40;100.00
47753;BME280;2038;51.728;6.674;2023-03-15T06:30:40;100866.16;;;3.42;100.00
47753;BME280;2038;51.728;6.674;2023-03-15T06:33:06;100870.47;;;3.52;100.00
47753;BME280;2038;51.728;6.674;2023-03-15T06:35:31;100870.31;;;3.50;100.00
47753;BME280;2038;51.728;6.674;2023-03-15T06:37:57;100867.78;;;3.50;100.00
47753;BME280;2038;51.728;6.674;2023-03-15T06:40:23;100865.09;;;3.57;100.00
47753;BME280;2038;51.728;6.674;2023-03-15T06:42:49;100872.97;;;3.60;100.00
47753;BME280;2038;51.728;6.674;2023-03-15T06:45:15;100875.16;;;3.66;100.00
47753;BME280;2038;51.728;6.674;2023-03-15T06:47:41;100875.91;;;3.65;100.00
47753;BME280;2038;51.728;6.674;2023-03-15T06:50:07;100887.03;;;3.58;100.00
47753;BME280;2038;51.728;6.674;2023-03-15T06:52:34;100887.94;;;3.50;100.00
47753;BME280;2038;51.728;6.674;2023-03-15T06:55:00;100884.22;;;3.55;100.00
47753;BME280;2038;51.728;6.674;2023-03-15T06:57:25;100891.94;;;3.57;100.00
47753;BME280;2038;51.728;6.674;2023-03-15T06:59:51;100899.34;;;3.55;100.00
47753;BME280;2038;51.728;6.674;2023-03-15T07:02:19;100907.81;;;3.47;100.00
47753;BME280;2038;51.728;6.674;2023-03-15T07:04:45;100917.44;;;3.51;100.00
47753;BME280;2038;51.728;6.674;2023-03-15T07:07:13;100915.81;;;3.52;100.00
47753;BME280;2038;51.728;6.674;2023-03-15T07:09:40;100919.78;;;3.58;100.00
47753;BME280;2038;51.728;6.674;2023-03-15T07:12:06;100924.16;;;3.87;100.00
47753;BME280;2038;51.728;6.674;2023-03-15T07:14:33;100920.00;;;3.96;100.00
47753;BME280;2038;51.728;6.674;2023-03-15T07:16:59;100923.72;;;3.91;100.00
47753;BME280;2038;51.728;6.674;2023-03-15T07:19:26;100924.59;;;4.00;100.00
47753;BME280;2038;51.728;6.674;2023-03-15T07:21:52;100927.41;;;3.94;100.00
47753;BME280;2038;51.728;6.674;2023-03-15T07:24:18;100927.38;;;4.03;100.00
47753;BME280;2038;51.728;6.674;2023-03-15T07:26:44;100936.72;;;4.12;100.00
47753;BME280;2038;51.728;6.674;2023-03-15T07:29:10;100941.13;;;4.15;100.00
47753;BME280;2038;51.728;6.674;2023-03-15T07:31:37;100945.91;;;4.12;100.00
47753;BME280;2038;51.728;6.674;2023-03-15T07:34:03;100946.91;;;4.14;100.00
47753;BME280;2038;51.728;6.674;2023-03-15T07:36:29;100960.53;;;4.24;100.00
47753;BME280;2038;51.728;6.674;2023-03-15T07:38:57;100958.28;;;4.36;100.00
47753;BME280;2038;51.728;6.674;2023-03-15T07:41:23;100962.44;;;4.36;100.00
47753;BME280;2038;51.728;6.674;2023-03-15T07:43:49;100977.06;;;4.48;100.00
47753;BME280;2038;51.728;6.674;2023-03-15T07:46:15;100984.66;;;4.40;100.00
47753;BME280;2038;51.728;6.674;2023-03-15T07:48:42;100980.31;;;4.47;100.00
47753;BME280;2038;51.728;6.674;2023-03-15T07:51:08;100988.13;;;4.59;100.00
47753;BME280;2038;51.728;6.674;2023-03-15T07:53:34;100991.84;;;4.62;100.00
47753;BME280;2038;51.728;6.674;2023-03-15T07:56:00;101001.75;;;4.69;100.00
47753;BME280;2038;51.728;6.674;2023-03-15T07:58:27;101002.16;;;4.74;100.00
47753;BME280;2038;51.728;6.674;2023-03-15T08:00:57;101007.88;;;4.90;100.00
47753;BME280;2038;51.728;6.674;2023-03-15T08:03:26;101008.03;;;4.92;100.00
47753;BME280;2038;51.728;6.674;2023-03-15T08:05:52;101022.09;;;4.98;100.00
47753;BME280;2038;51.728;6.674;2023-03-15T08:08:19;101027.09;;;5.07;100.00
47753;BME280;2038;51.728;6.674;2023-03-15T08:10:45;101036.19;;;5.24;100.00
47753;BME280;2038;51.728;6.674;2023-03-15T08:13:12;101051.59;;;5.35;100.00
47753;BME280;2038;51.728;6.674;2023-03-15T08:15:39;101045.44;;;5.42;100.00
47753;BME280;2038;51.728;6.674;2023-03-15T08:18:06;101051.06;;;5.48;100.00
47753;BME280;2038;51.728;6.674;2023-03-15T08:20:32;101051.38;;;5.42;100.00
47753;BME280;2038;51.728;6.674;2023-03-15T08:22:59;101055.47;;;5.50;100.00
47753;BME280;2038;51.728;6.674;2023-03-15T08:25:26;101064.38;;;5.55;100.00
47753;BME280;2038;51.728;6.674;2023-03-15T08:27:53;101061.78;;;5.64;100.00
47753;BME280;2038;51.728;6.674;2023-03-15T08:30:20;101065.69;;;5.60;100.00
47753;BME280;2038;51.728;6.674;2023-03-15T08:32:47;101071.16;;;5.65;100.00
47753;BME280;2038;51.728;6.674;2023-03-15T08:35:17;101070.72;;;5.79;100.00
47753;BME280;2038;51.728;6.674;2023-03-15T08:37:46;101079.94;;;5.79;100.00
47753;BME280;2038;51.728;6.674;2023-03-15T08:40:13;101087.84;;;5.82;100.00
47753;BME280;2038;51.728;6.674;2023-03-15T08:42:41;101080.50;;;5.85;100.00
47753;BME280;2038;51.728;6.674;2023-03-15T08:45:08;101088.56;;;5.89;100.00
47753;BME280;2038;51.728;6.674;2023-03-15T08:47:35;101085.44;;;6.02;100.00
47753;BME280;2038;51.728;6.674;2023-03-15T08:50:05;101091.13;;;5.99;100.00
47753;BME280;2038;51.728;6.674;2023-03-15T08:52:33;101097.97;;;6.00;100.00
47753;BME280;2038;51.728;6.674;2023-03-15T08:55:00;101110.47;;;5.99;100.00
47753;BME280;2038;51.728;6.674;2023-03-15T08:57:26;101109.09;;;6.02;100.00
47753;BME280;2038;51.728;6.674;2023-03-15T08:59:54;101102.41;;;6.22;100.00
47753;BME280;2038;51.728;6.674;2023-03-15T09:02:21;101100.88;;;6.24;100.00
47753;BME280;2038;51.728;6.674;2023-03-15T09:04:48;101105.03;;;6.23;100.00
47753;BME280;2038;51.728;6.674;2023-03-15T09:07:14;101102.75;;;6.45;100.00
47753;BME280;2038;51.728;6.674;2023-03-15T09:09:41;101108.56;;;6.44;100.00
47753;BME280;2038;51.728;6.674;2023-03-15T09:12:15;101114.03;;;6.48;100.00
47753;BME280;2038;51.728;6.674;2023-03-15T09:14:42;101110.47;;;6.46;100.00
47753;BME280;2038;51.728;6.674;2023-03-15T09:17:09;101114.16;;;6.50;100.00
47753;BME280;2038;51.728;6.674;2023-03-15T09:19:35;101116.09;;;6.63;100.00
47753;BME280;2038;51.728;6.674;2023-03-15T09:22:01;101115.69;;;6.58;100.00
47753;BME280;2038;51.728;6.674;2023-03-15T09:24:28;101116.09;;;6.63;100.00
47753;BME280;2038;51.728;6.674;2023-03-15T09:26:54;101121.53;;;6.57;100.00
47753;BME280;2038;51.728;6.674;2023-03-15T09:29:20;101121.06;;;6.71;100.00
47753;BME280;2038;51.728;6.674;2023-03-15T09:31:46;101131.59;;;6.76;100.00
47753;BME280;2038;51.728;6.674;2023-03-15T09:34:13;101131.25;;;6.81;100.00
47753;BME280;2038;51.728;6.674;2023-03-15T09:36:39;101140.09;;;6.76;100.00
47753;BME280;2038;51.728;6.674;2023-03-15T09:39:05;101132.50;;;6.76;100.00
47753;BME280;2038;51.728;6.674;2023-03-15T09:41:49;101147.59;;;6.85;100.00
47753;BME280;2038;51.728;6.674;2023-03-15T09:44:31;101140.00;;;6.85;100.00
47753;BME280;2038;51.728;6.674;2023-03-15T09:50:14;101139.38;;;6.87;100.00
47753;BME280;2038;51.728;6.674;2023-03-15T09:53:01;101138.88;;;6.91;99.79
47753;BME280;2038;51.728;6.674;2023-03-15T09:55:39;101138.28;;;6.94;99.63
47753;BME280;2038;51.728;6.674;2023-03-15T09:58:13;101140.91;;;6.85;98.41
47753;BME280;2038;51.728;6.674;2023-03-15T10:00:46;101150.03;;;6.93;97.43
47753;BME280;2038;51.728;6.674;2023-03-15T10:03:33;101140.56;;;7.01;94.17
47753;BME280;2038;51.728;6.674;2023-03-15T10:06:17;101145.63;;;7.11;94.29
47753;BME280;2038;51.728;6.674;2023-03-15T10:08:46;101147.81;;;7.17;95.88
47753;BME280;2038;51.728;6.674;2023-03-15T10:11:33;101148.56;;;7.16;95.05
47753;BME280;2038;51.728;6.674;2023-03-15T10:17:30;101152.88;;;7.27;93.64
47753;BME280;2038;51.728;6.674;2023-03-15T10:20:14;101150.50;;;7.38;95.48
47753;BME280;2038;51.728;6.674;2023-03-15T10:22:58;101151.63;;;7.32;93.33
47753;BME280;2038;51.728;6.674;2023-03-15T10:25:34;101161.41;;;7.47;90.74
47753;BME280;2038;51.728;6.674;2023-03-15T10:28:12;101158.78;;;7.56;89.74
47753;BME280;2038;51.728;6.674;2023-03-15T10:30:47;101157.13;;;7.57;89.23
47753;BME280;2038;51.728;6.674;2023-03-15T10:33:33;101154.19;;;7.72;88.25
47753;BME280;2038;51.728;6.674;2023-03-15T10:36:13;101162.06;;;7.65;85.56
47753;BME280;2038;51.728;6.674;2023-03-15T10:38:43;101162.81;;;7.64;85.08
47753;BME280;2038;51.728;6.674;2023-03-15T10:41:26;101172.63;;;7.70;86.44
47753;BME280;2038;51.728;6.674;2023-03-15T10:44:02;101160.16;;;7.73;89.22
47753;BME280;2038;51.728;6.674;2023-03-15T10:46:30;101168.69;;;7.73;86.60
47753;BME280;2038;51.728;6.674;2023-03-15T10:49:10;101169.94;;;7.68;84.37
47753;BME280;2038;51.728;6.674;2023-03-15T10:51:42;101174.13;;;7.78;81.92
47753;BME280;2038;51.728;6.674;2023-03-15T10:54:21;101176.03;;;7.70;81.74
47753;BME280;2038;51.728;6.674;2023-03-15T10:59:56;101167.75;;;7.42;85.15
47753;BME280;2038;51.728;6.674;2023-03-15T11:02:25;101161.41;;;7.47;86.13
47753;BME280;2038;51.728;6.674;2023-03-15T11:07:37;101160.81;;;7.70;86.24
47753;BME280;2038;51.728;6.674;2023-03-15T11:10:28;101181.59;;;7.76;85.11
47753;BME280;2038;51.728;6.674;2023-03-15T11:13:10;101187.03;;;7.71;81.57
47753;BME280;2038;51.728;6.674;2023-03-15T11:15:39;101192.13;;;7.71;81.63
47753;BME280;2038;51.728;6.674;2023-03-15T11:18:19;101198.59;;;7.67;81.31
47753;BME280;2038;51.728;6.674;2023-03-15T11:20:52;101195.94;;;7.66;82.68
47753;BME280;2038;51.728;6.674;2023-03-15T11:23:24;101188.59;;;7.69;82.72
47753;BME280;2038;51.728;6.674;2023-03-15T11:25:53;101195.41;;;7.60;80.44
47753;BME280;2038;51.728;6.674;2023-03-15T11:28:24;101199.50;;;7.58;81.73
47753;BME280;2038;51.728;6.674;2023-03-15T11:30:53;101202.13;;;7.59;82.25
47753;BME280;2038;51.728;6.674;2023-03-15T11:33:37;101196.53;;;7.43;82.92
47753;BME280;2038;51.728;6.674;2023-03-15T11:36:36;101200.72;;;7.42;81.52
47753;BME280;2038;51.728;6.674;2023-03-15T11:39:07;101200.59;;;7.51;82.00
47753;BME280;2038;51.728;6.674;2023-03-15T11:41:42;101199.72;;;7.61;83.43
47753;BME280;2038;51.728;6.674;2023-03-15T11:44:49;101201.75;;;7.75;83.67
47753;BME280;2038;51.728;6.674;2023-03-15T11:47:34;101199.34;;;7.86;80.09
47753;BME280;2038;51.728;6.674;2023-03-15T11:50:10;101198.47;;;7.96;78.50
47753;BME280;2038;51.728;6.674;2023-03-15T11:52:40;101209.63;;;8.08;79.03
47753;BME280;2038;51.728;6.674;2023-03-15T11:55:25;101199.88;;;8.13;82.35
47753;BME280;2038;51.728;6.674;2023-03-15T11:57:54;101202.38;;;8.23;82.93
47753;BME280;2038;51.728;6.674;2023-03-15T12:03:35;101199.94;;;8.55;82.49
47753;BME280;2038;51.728;6.674;2023-03-15T12:08:59;101199.34;;;8.79;80.52
47753;BME280;2038;51.728;6.674;2023-03-15T12:16:24;101206.88;;;8.99;81.29
47753;BME280;2038;51.728;6.674;2023-03-15T12:18:56;101199.47;;;8.80;80.33
47753;BME280;2038;51.728;6.674;2023-03-15T12:21:39;101201.88;;;8.79;80.40
47753;BME280;2038;51.728;6.674;2023-03-15T12:24:30;101201.56;;;8.74;80.46
47753;BME280;2038;51.728;6.674;2023-03-15T12:27:14;101193.63;;;8.81;81.34
47753;BME280;2038;51.728;6.674;2023-03-15T12:29:45;101190.34;;;8.82;78.93
47753;BME280;2038;51.728;6.674;2023-03-15T12:32:17;101197.59;;;8.78;77.08
47753;BME280;2038;51.728;6.674;2023-03-15T12:34:54;101197.44;;;8.86;77.87
47753;BME280;2038;51.728;6.674;2023-03-15T12:37:42;101195.50;;;8.94;75.22
47753;BME280;2038;51.728;6.674;2023-03-15T12:53:39;101195.06;;;9.00;76.82
47753;BME280;2038;51.728;6.674;2023-03-15T12:56:32;101203.59;;;9.00;74.83
47753;BME280;2038;51.728;6.674;2023-03-15T12:59:30;101195.50;;;8.94;75.63
47753;BME280;2038;51.728;6.674;2023-03-15T13:05:16;101194.53;;;9.04;76.18
47753;BME280;2038;51.728;6.674;2023-03-15T13:08:05;101197.09;;;9.04;76.13
47753;BME280;2038;51.728;6.674;2023-03-15T13:13:24;101186.81;;;9.02;75.92
47753;BME280;2038;51.728;6.674;2023-03-15T13:30:32;101199.81;;;9.17;73.57
47753;BME280;2038;51.728;6.674;2023-03-15T13:33:18;101199.81;;;9.17;72.21
47753;BME280;2038;51.728;6.674;2023-03-15T13:36:03;101204.31;;;9.31;73.96
47753;BME280;2038;51.728;6.674;2023-03-15T13:38:52;101196.69;;;9.31;73.83
47753;BME280;2038;51.728;6.674;2023-03-15T13:41:28;101202.91;;;9.34;74.64
47753;BME280;2038;51.728;6.674;2023-03-15T13:44:03;101199.59;;;9.35;74.64
47753;BME280;2038;51.728;6.674;2023-03-15T13:46:37;101202.13;;;9.35;72.99
47753;BME280;2038;51.728;6.674;2023-03-15T13:49:04;101199.72;;;9.37;73.29
47753;BME280;2038;51.728;6.674;2023-03-15T13:51:33;101199.59;;;9.35;72.85
47753;BME280;2038;51.728;6.674;2023-03-15T13:54:07;101200.91;;;9.30;71.98
47753;BME280;2038;51.728;6.674;2023-03-15T13:56:55;101206.53;;;9.26;69.17
47753;BME280;2038;51.728;6.674;2023-03-15T14:00:00;101199.59;;;9.35;73.34
47753;BME280;2038;51.728;6.674;2023-03-15T14:02:56;101208.00;;;9.34;71.11
47753;BME280;2038;51.728;6.674;2023-03-15T14:05:33;101198.94;;;9.38;71.07
47753;BME280;2038;51.728;6.674;2023-03-15T14:08:38;101207.47;;;9.38;71.35
47753;BME280;2038;51.728;6.674;2023-03-15T14:13:54;101214.38;;;9.29;68.57
47753;BME280;2038;51.728;6.674;2023-03-15T14:16:38;101211.47;;;9.25;69.65
47753;BME280;2038;51.728;6.674;2023-03-15T14:19:16;101212.38;;;9.25;69.28
47753;BME280;2038;51.728;6.674;2023-03-15T14:21:46;101218.63;;;9.19;66.75
47753;BME280;2038;51.728;6.674;2023-03-15T14:24:34;101229.31;;;9.15;65.36
47753;BME280;2038;51.728;6.674;2023-03-15T14:27:08;101230.38;;;9.07;65.66